Time;durP1;ratioP1;P1;durP2;ratioP2;P2;SDS_P1;SDS_P2;PMS_P1;PMS_P2;Temp;Humidity;BMP_temperature;BMP_pressure;BME280_temperature;BME280_humidity;BME280_pressure;Samples;Min_cycle;Max_cycle;Signal;HPM_P1;HPM_P2
2023/03/14 00:01:40;;;;;;;2.42;1.70;;;;;;;-3.43;70.79;99028.19;7340428;19;20014;-72
2023/03/14 00:04:05;;;;;;;3.85;1.92;;;;;;;-3.43;70.72;99028.19;7341521;19;20025;-73
2023/03/14 00:06:31;;;;;;;4.65;2.08;;;;;;;-3.41;70.64;99013.38;7342269;19;20002;-71
2023/03/14 00:08:55;;;;;;;3.45;2.08;;;;;;;-3.41;70.30;99009.91;7342918;19;20010;-74
2023/03/14 00:11:21;;;;;;;6.75;2.67;;;;;;;-3.22;70.96;99010.28;7348956;19;20015;-63
2023/03/14 00:13:50;;;;;;;6.00;2.63;;;;;;;-3.26;70.41;98979.97;7348668;19;20018;-75
2023/03/14 00:16:15;;;;;;;2.30;1.50;;;;;;;-3.13;70.44;98970.94;7347793;19;20018;-76
2023/03/14 00:18:40;;;;;;;4.55;2.40;;;;;;;-3.13;70.33;98966.59;7349728;19;20007;-77
2023/03/14 00:21:07;;;;;;;2.90;2.22;;;;;;;-3.25;70.02;98947.81;7349117;19;20022;-71
2023/03/14 00:23:34;;;;;;;5.60;2.05;;;;;;;-3.32;70.07;98958.41;7351008;19;20017;-76
2023/03/14 00:26:04;;;;;;;4.22;2.50;;;;;;;-3.27;70.40;98962.66;7354617;19;20028;-73
2023/03/14 00:28:29;;;;;;;7.30;2.08;;;;;;;-3.23;70.23;98956.44;7358562;19;20408;-76
2023/03/14 00:30:54;;;;;;;3.63;2.03;;;;;;;-3.05;70.64;98946.34;7360692;19;20412;-76
2023/03/14 00:33:19;;;;;;;4.22;2.38;;;;;;;-3.16;70.71;98947.59;7361754;19;20022;-74
2023/03/14 00:35:51;;;;;;;3.30;1.58;;;;;;;-2.77;71.32;98950.81;7356684;19;20066;-78
2023/03/14 00:38:16;;;;;;;6.25;3.20;;;;;;;-3.06;71.15;98934.25;7346796;19;20031;-73
2023/03/14 00:40:40;;;;;;;3.22;2.30;;;;;;;-2.89;71.65;98933.75;7351705;19;20010;-78
2023/03/14 00:43:05;;;;;;;3.38;2.25;;;;;;;-3.06;72.68;98936.84;7350132;19;20006;-76
2023/03/14 00:45:29;;;;;;;7.07;2.85;;;;;;;-3.01;73.16;98960.19;7348102;19;20018;-75
2023/03/14 00:47:54;;;;;;;4.45;3.05;;;;;;;-3.02;73.65;98927.19;7351630;19;20373;-75
2023/03/14 00:50:19;;;;;;;3.08;2.20;;;;;;;-3.08;74.11;98924.75;7350948;19;20478;-76
2023/03/14 00:52:44;;;;;;;6.57;3.55;;;;;;;-3.08;74.34;98940.41;7351494;19;20011;-78
2023/03/14 00:55:09;;;;;;;6.57;4.05;;;;;;;-3.19;75.06;98932.88;7351138;19;20030;-79
2023/03/14 00:57:33;;;;;;;5.18;3.00;;;;;;;-3.10;75.65;98931.75;7346927;19;20361;-76
2023/03/14 00:59:58;;;;;;;1.90;1.30;;;;;;;-2.80;74.99;98914.38;7349503;19;20014;-74
2023/03/14 01:02:23;;;;;;;4.38;3.00;;;;;;;-2.87;75.25;98907.63;7349509;19;20031;-70
2023/03/14 01:04:48;;;;;;;3.45;2.55;;;;;;;-3.00;75.93;98928.00;7346785;19;20003;-77
2023/03/14 01:07:13;;;;;;;3.30;2.28;;;;;;;-3.03;76.58;98928.06;7346756;19;20031;-74
2023/03/14 01:09:38;;;;;;;8.73;3.13;;;;;;;-3.06;77.03;98920.34;7349730;19;20014;-73
2023/03/14 01:12:03;;;;;;;6.28;3.42;;;;;;;-2.94;76.75;98906.97;7346528;19;20011;-77
2023/03/14 01:14:27;;;;;;;3.83;1.42;;;;;;;-2.90;76.53;98913.78;7349384;19;20006;-75
2023/03/14 01:16:52;;;;;;;4.60;3.38;;;;;;;-3.10;78.24;98924.78;7344888;19;20102;-73
2023/03/14 01:19:18;;;;;;;3.97;1.98;;;;;;;-3.25;80.09;98912.19;7346874;19;20050;-75
2023/03/14 01:21:42;;;;;;;3.22;2.20;;;;;;;-3.08;80.34;98903.91;7348959;19;20011;-75
2023/03/14 01:24:07;;;;;;;8.55;4.53;;;;;;;-3.29;81.79;98897.53;7349026;19;20346;-72
2023/03/14 01:26:34;;;;;;;6.90;3.85;;;;;;;-3.34;82.23;98887.22;7347701;19;20015;-75
2023/03/14 01:29:00;;;;;;;27.52;4.28;;;;;;;-3.42;83.28;98868.34;7348340;19;20015;-73
2023/03/14 01:31:26;;;;;;;2.55;2.13;;;;;;;-3.54;85.36;98860.88;7348147;19;20088;-76
2023/03/14 01:33:51;;;;;;;4.88;3.55;;;;;;;-3.33;86.19;98862.03;7348947;19;20047;-76
2023/03/14 01:36:18;;;;;;;7.93;4.30;;;;;;;-3.47;86.79;98844.16;7346012;19;20022;-78
2023/03/14 01:38:43;;;;;;;10.48;3.58;;;;;;;-3.48;87.03;98839.00;7348513;19;20014;-76
2023/03/14 01:41:16;;;;;;;5.35;2.95;;;;;;;-3.32;87.36;98851.56;7350458;19;20034;-77
2023/03/14 01:43:42;;;;;;;6.32;4.18;;;;;;;-3.41;87.97;98850.97;7350318;19;20085;-77
2023/03/14 01:46:08;;;;;;;4.20;2.78;;;;;;;-3.30;88.45;98836.75;7350396;19;20126;-79
2023/03/14 01:49:04;;;;;;;7.10;4.28;;;;;;;-3.48;89.49;98820.75;7350052;19;20046;-75
2023/03/14 01:51:34;;;;;;;8.52;5.22;;;;;;;-3.45;90.05;98833.72;7347388;19;20510;-78
2023/03/14 01:54:19;;;;;;;5.45;3.90;;;;;;;-3.40;90.64;98835.31;7347620;19;20053;-76
2023/03/14 01:56:48;;;;;;;7.65;4.75;;;;;;;-3.24;91.07;98819.19;7344404;19;20269;-74
2023/03/14 01:59:13;;;;;;;4.82;2.83;;;;;;;-2.98;90.23;98804.50;7346965;19;20053;-77
2023/03/14 02:01:41;;;;;;;8.23;4.78;;;;;;;-3.27;91.23;98799.28;7345484;19;20019;-76
2023/03/14 02:04:08;;;;;;;7.78;5.55;;;;;;;-3.31;91.62;98795.94;7346067;19;20021;-75
2023/03/14 02:06:42;;;;;;;23.23;8.10;;;;;;;-3.42;92.26;98798.00;7345253;19;20018;-74
2023/03/14 02:09:07;;;;;;;14.85;6.53;;;;;;;-3.35;92.86;98809.94;7344978;19;20018;-78
2023/03/14 02:11:34;;;;;;;8.52;5.07;;;;;;;-3.17;93.46;98786.88;7342083;19;20494;-77
2023/03/14 02:14:07;;;;;;;6.97;3.63;;;;;;;-3.13;93.60;98798.88;7341089;19;20014;-72
2023/03/14 02:16:55;;;;;;;11.00;5.45;;;;;;;-3.16;93.91;98785.97;7338420;19;20820;-74
2023/03/14 02:19:53;;;;;;;9.80;5.18;;;;;;;-3.18;94.00;98790.38;7340600;19;20017;-72
2023/03/14 02:22:29;;;;;;;;;;;;;;;-3.15;94.42;98787.66;7341763;19;20010;-76
2023/03/14 02:25:24;;;;;;;4.70;2.78;;;;;;;-3.09;94.69;98767.47;7342821;19;19933;-80
2023/03/14 02:27:49;;;;;;;11.15;7.18;;;;;;;-3.31;94.93;98748.19;7341032;19;20042;-79
2023/03/14 02:30:19;;;;;;;10.02;5.85;;;;;;;-3.27;95.24;98756.75;7345445;19;20096;-74
2023/03/14 02:32:47;;;;;;;13.43;8.13;;;;;;;-3.16;95.32;98731.22;7340831;19;20014;-75
2023/03/14 02:35:18;;;;;;;7.38;5.03;;;;;;;-2.99;95.47;98721.13;7343709;19;20014;-66
2023/03/14 02:37:52;;;;;;;7.65;4.70;;;;;;;-2.95;95.67;98714.91;7339414;19;20025;-66
2023/03/14 02:40:17;;;;;;;8.23;5.03;;;;;;;-3.05;95.75;98708.28;7343871;19;20481;-65
2023/03/14 02:42:42;;;;;;;14.73;7.35;;;;;;;-2.97;96.39;98727.13;7341531;19;20024;-66
2023/03/14 02:45:10;;;;;;;8.82;5.55;;;;;;;-2.93;96.42;98715.69;7345098;19;20022;-67
2023/03/14 02:47:47;;;;;;;9.35;4.38;;;;;;;-2.66;96.51;98727.00;7345142;19;20352;-68
2023/03/14 02:50:15;;;;;;;4.45;2.75;;;;;;;-2.81;96.69;98725.72;7342644;19;20070;-67
2023/03/14 02:52:40;;;;;;;13.30;8.10;;;;;;;-2.93;96.86;98720.91;7343561;19;20022;-66
2023/03/14 02:55:06;;;;;;;10.55;6.70;;;;;;;-2.74;96.98;98693.34;7343667;19;20046;-70
2023/03/14 02:57:32;;;;;;;8.88;5.55;;;;;;;-2.68;97.14;98736.63;7342100;19;20029;-69
2023/03/14 03:00:00;;;;;;;18.45;10.25;;;;;;;-2.58;97.51;98719.75;7343956;19;20014;-71
2023/03/14 03:02:28;;;;;;;6.40;3.53;;;;;;;-2.53;97.39;98724.81;7342445;19;20014;-72
2023/03/14 03:04:53;;;;;;;19.02;9.48;;;;;;;-2.45;97.49;98721.06;7344238;19;20015;-77
2023/03/14 03:07:19;;;;;;;8.07;5.68;;;;;;;-2.57;97.27;98714.50;7344232;19;20023;-76
2023/03/14 03:09:43;;;;;;;17.10;7.75;;;;;;;-2.54;97.64;98744.00;7344744;19;20010;-75
2023/03/14 03:12:15;;;;;;;11.60;7.50;;;;;;;-2.50;97.76;98709.06;7345761;19;20014;-78
2023/03/14 03:14:39;;;;;;;11.25;6.65;;;;;;;-2.43;97.94;98690.53;7344299;19;20018;-74
2023/03/14 03:17:05;;;;;;;15.77;7.13;;;;;;;-2.49;97.89;98700.34;7340228;19;20467;-74
2023/03/14 03:19:31;;;;;;;16.00;9.20;;;;;;;-2.64;98.00;98686.91;7346997;19;20010;-72
2023/03/14 03:21:55;;;;;;;12.68;7.88;;;;;;;-2.37;98.18;98692.09;7350843;19;20022;-74
2023/03/14 03:24:20;;;;;;;10.90;5.50;;;;;;;-2.38;98.23;98677.34;7351627;19;20023;-76
2023/03/14 03:26:44;;;;;;;13.63;8.40;;;;;;;-2.32;98.45;98679.72;7346720;19;20034;-72
2023/03/14 03:29:09;;;;;;;13.93;9.25;;;;;;;-2.23;98.47;98658.50;7346322;19;20031;-71
2023/03/14 03:31:37;;;;;;;18.92;9.65;;;;;;;-2.26;98.43;98654.25;7347324;19;20015;-73
2023/03/14 03:34:01;;;;;;;9.07;5.28;;;;;;;-2.19;98.55;98662.72;7352080;19;20017;-72
2023/03/14 03:36:26;;;;;;;14.45;9.55;;;;;;;-2.14;98.73;98645.13;7348435;19;20018;-76
2023/03/14 03:38:51;;;;;;;11.80;6.68;;;;;;;-2.09;98.50;98644.97;7349399;19;20031;-73
2023/03/14 03:41:16;;;;;;;12.65;7.75;;;;;;;-1.98;98.36;98637.59;7346086;19;20500;-74
2023/03/14 03:43:41;;;;;;;10.00;5.32;;;;;;;-1.97;98.29;98653.22;7345046;19;20378;-72
2023/03/14 03:46:08;;;;;;;8.20;5.20;;;;;;;-1.85;98.19;98623.16;7351036;19;20637;-72
2023/03/14 03:48:33;;;;;;;19.35;11.55;;;;;;;-1.94;98.48;98624.38;7351239;19;20010;-72
2023/03/14 03:51:01;;;;;;;15.05;7.97;;;;;;;-1.85;98.50;98636.22;7351309;19;20033;-76
2023/03/14 03:53:26;;;;;;;11.52;5.43;;;;;;;-1.73;98.06;98627.94;7354674;19;20014;-75
2023/03/14 03:55:51;;;;;;;12.48;7.18;;;;;;;-1.79;98.36;98628.16;7348663;19;20006;-74
2023/03/14 03:58:15;;;;;;;14.18;8.50;;;;;;;-1.81;98.59;98621.31;7352530;19;20414;-74
2023/03/14 04:00:40;;;;;;;11.88;7.03;;;;;;;-1.72;98.38;98632.25;7353799;19;20038;-72
2023/03/14 04:03:05;;;;;;;10.77;7.47;;;;;;;-1.65;98.33;98606.72;7350391;19;20344;-73
2023/03/14 04:05:29;;;;;;;11.40;7.43;;;;;;;-1.69;98.53;98629.50;7349016;19;20018;-73
2023/03/14 04:08:02;;;;;;;8.80;5.70;;;;;;;-1.64;98.71;98619.72;7350509;19;20022;-72
2023/03/14 04:10:29;;;;;;;10.77;7.63;;;;;;;-1.57;98.61;98602.88;7349578;19;20034;-73
2023/03/14 04:13:14;;;;;;;8.68;4.93;;;;;;;-1.40;98.17;98631.00;7350425;19;20010;-75
2023/03/14 04:15:41;;;;;;;11.00;6.15;;;;;;;-1.38;98.37;98615.25;7347603;19;20461;-74
2023/03/14 04:18:12;;;;;;;15.05;7.65;;;;;;;-1.33;98.27;98606.28;7349321;19;20015;-74
2023/03/14 04:20:36;;;;;;;10.00;6.65;;;;;;;-1.36;98.17;98609.06;7350788;19;20065;-73
2023/03/14 04:23:02;;;;;;;7.43;5.57;;;;;;;-1.30;98.15;98613.16;7353624;19;20025;-74
2023/03/14 04:25:27;;;;;;;9.93;5.75;;;;;;;-1.27;98.13;98593.00;7353123;19;20051;-74
2023/03/14 04:27:55;;;;;;;11.43;6.25;;;;;;;-1.25;98.47;98609.47;7350343;19;20015;-74
2023/03/14 04:30:26;;;;;;;4.53;2.42;;;;;;;-1.12;97.92;98579.28;7351566;19;20015;-74
2023/03/14 04:32:55;;;;;;;7.85;4.95;;;;;;;-1.02;97.65;98585.00;7350663;19;20374;-71
2023/03/14 04:35:22;;;;;;;10.00;6.03;;;;;;;-1.07;98.12;98570.41;7351389;19;20485;-76
2023/03/14 04:37:51;;;;;;;14.32;7.07;;;;;;;-0.94;97.62;98582.06;7345964;19;20002;-76
2023/03/14 04:40:18;;;;;;;8.55;6.43;;;;;;;-0.97;97.65;98575.16;7350534;19;20022;-75
2023/03/14 04:42:44;;;;;;;14.60;5.93;;;;;;;-1.01;98.03;98572.75;7353153;19;20014;-74
2023/03/14 04:45:09;;;;;;;11.73;6.57;;;;;;;-0.95;97.81;98569.88;7348700;19;20470;-74
2023/03/14 04:47:37;;;;;;;11.00;7.07;;;;;;;-0.87;97.81;98594.78;7355986;19;20023;-72
2023/03/14 04:50:02;;;;;;;10.48;6.53;;;;;;;-0.77;97.11;98564.72;7353395;19;20034;-72
2023/03/14 04:52:27;;;;;;;9.60;5.22;;;;;;;-0.73;97.22;98568.06;7352676;19;20010;-74
2023/03/14 04:54:52;;;;;;;7.03;4.25;;;;;;;-0.67;96.42;98566.91;7353064;19;20033;-74
2023/03/14 04:57:18;;;;;;;11.00;5.50;;;;;;;-0.52;96.46;98548.78;7347181;19;20034;-74
2023/03/14 04:59:46;;;;;;;11.60;6.25;;;;;;;-0.59;96.51;98538.66;7348083;19;20050;-76
2023/03/14 05:02:28;;;;;;;10.30;5.25;;;;;;;-0.59;96.51;98538.66;7351097;19;20269;-75
2023/03/14 05:05:01;;;;;;;10.48;5.90;;;;;;;-0.62;96.26;98536.19;7351668;19;20017;-75
2023/03/14 05:08:01;;;;;;;5.50;3.60;;;;;;;-0.48;95.79;98515.47;7348997;19;20014;-75
2023/03/14 05:10:55;;;;;;;4.75;3.13;;;;;;;-0.28;95.07;98515.41;7349793;19;20036;-74
2023/03/14 05:13:43;;;;;;;5.93;3.22;;;;;;;-0.34;95.08;98502.63;7348309;19;20431;-77
2023/03/14 05:16:36;;;;;;;8.88;6.32;;;;;;;-0.39;95.01;98523.75;7350493;19;20395;-75
2023/03/14 05:19:27;;;;;;;8.45;5.68;;;;;;;-0.40;95.27;98493.25;7352714;19;20022;-76
2023/03/14 05:22:11;;;;;;;14.43;5.07;;;;;;;-0.33;95.01;98506.06;7346238;19;20651;-76
2023/03/14 05:24:58;;;;;;;9.02;5.10;;;;;;;-0.32;95.28;98505.16;7341855;19;20027;-72
2023/03/14 05:27:46;;;;;;;4.18;3.28;;;;;;;-0.18;94.41;98513.22;7342187;19;20119;-74
2023/03/14 05:30:30;;;;;;;10.20;5.85;;;;;;;-0.22;94.95;98517.75;7342278;19;20321;-74
2023/03/14 05:33:18;;;;;;;9.43;5.00;;;;;;;-0.21;94.80;98508.13;7345294;19;20017;-76
2023/03/14 05:36:01;;;;;;;7.18;3.38;;;;;;;-0.10;94.42;98513.72;7341736;19;20022;-74
2023/03/14 05:38:40;;;;;;;11.77;4.82;;;;;;;-0.09;94.43;98525.88;7340141;19;20612;-73
2023/03/14 05:41:25;;;;;;;7.32;5.07;;;;;;;0.01;93.63;98529.78;7340336;19;20021;-75
2023/03/14 05:44:13;;;;;;;9.82;5.53;;;;;;;-0.07;93.95;98530.16;7340342;19;20022;-76
2023/03/14 05:46:58;;;;;;;8.00;4.68;;;;;;;-0.03;93.91;98525.63;7342014;19;20082;-76
2023/03/14 05:49:55;;;;;;;8.93;6.50;;;;;;;-0.17;94.24;98528.03;7343706;19;20519;-77
2023/03/14 05:52:32;;;;;;;13.65;5.78;;;;;;;-0.12;94.80;98523.44;7348538;19;20018;-77
2023/03/14 05:54:59;;;;;;;7.60;5.43;;;;;;;-0.04;94.58;98521.28;7347165;19;20021;-74
2023/03/14 05:57:47;;;;;;;12.57;5.30;;;;;;;0.01;94.37;98545.50;7355086;19;20018;-73
2023/03/14 06:00:21;;;;;;;9.45;5.68;;;;;;;0.06;94.48;98538.28;7357882;19;20435;-76
2023/03/14 06:03:04;;;;;;;9.73;6.63;;;;;;;0.07;94.63;98540.00;7346702;19;20087;-76
2023/03/14 06:05:33;;;;;;;5.50;3.08;;;;;;;0.17;94.41;98530.78;7343342;19;20374;-73
2023/03/14 06:07:59;;;;;;;7.90;5.35;;;;;;;0.21;94.72;98529.72;7342573;19;20014;-77
2023/03/14 06:10:26;;;;;;;7.13;5.20;;;;;;;0.34;94.19;98536.03;7343251;19;20049;-78
2023/03/14 06:12:50;;;;;;;12.70;5.25;;;;;;;0.45;93.97;98517.22;7342334;19;20007;-77
2023/03/14 06:15:15;;;;;;;7.00;4.30;;;;;;;0.39;94.11;98529.75;7341546;19;20003;-77
2023/03/14 06:17:41;;;;;;;6.32;3.75;;;;;;;0.59;93.52;98521.75;7341848;19;20023;-76
2023/03/14 06:20:10;;;;;;;12.07;5.05;;;;;;;0.66;93.10;98520.53;7341757;19;20344;-76
2023/03/14 06:22:35;;;;;;;6.80;4.60;;;;;;;0.65;93.16;98511.81;7342038;19;20023;-76
2023/03/14 06:25:00;;;;;;;10.45;4.70;;;;;;;0.67;93.03;98519.63;7341839;19;20018;-77
2023/03/14 06:27:24;;;;;;;7.80;5.72;;;;;;;0.62;92.53;98518.97;7341196;19;20011;-75
2023/03/14 06:29:53;;;;;;;4.63;3.22;;;;;;;0.80;92.12;98532.94;7341318;19;20097;-75
2023/03/14 06:32:18;;;;;;;12.10;6.47;;;;;;;0.70;91.97;98494.06;7340337;19;20078;-75
2023/03/14 06:34:44;;;;;;;12.27;5.63;;;;;;;0.71;91.87;98521.16;7341198;19;20026;-72
2023/03/14 06:37:09;;;;;;;11.38;4.68;;;;;;;0.86;91.19;98517.78;7343308;19;20502;-72
2023/03/14 06:39:33;;;;;;;7.25;4.53;;;;;;;0.70;91.17;98515.06;7341481;19;20478;-73
2023/03/14 06:42:05;;;;;;;9.35;5.28;;;;;;;0.74;91.11;98513.13;7341997;19;20058;-74
2023/03/14 06:44:31;;;;;;;7.78;4.82;;;;;;;0.84;90.72;98492.53;7340483;19;20021;-74
2023/03/14 06:46:56;;;;;;;8.57;4.90;;;;;;;0.77;90.91;98520.88;7340443;19;20014;-70
2023/03/14 06:49:21;;;;;;;8.20;4.43;;;;;;;0.78;90.65;98519.94;7340500;19;20021;-71
2023/03/14 06:51:49;;;;;;;6.68;3.63;;;;;;;0.78;90.51;98514.69;7340632;19;20033;-71
2023/03/14 06:54:13;;;;;;;10.68;5.28;;;;;;;0.89;90.11;98504.50;7340403;19;20018;-70
2023/03/14 06:56:39;;;;;;;6.10;3.15;;;;;;;0.91;90.21;98501.78;7341789;19;20086;-77
2023/03/14 06:59:04;;;;;;;9.45;5.50;;;;;;;0.87;90.19;98508.13;7348975;19;20019;-76
2023/03/14 07:01:32;;;;;;;8.48;4.30;;;;;;;0.97;90.49;98520.69;7353388;19;20022;-75
2023/03/14 07:04:03;;;;;;;8.98;4.60;;;;;;;1.10;90.52;98497.31;7344329;19;20022;-75
2023/03/14 07:06:29;;;;;;;9.15;5.22;;;;;;;1.22;90.93;98508.94;7341999;19;20025;-75
2023/03/14 07:08:53;;;;;;;8.35;4.47;;;;;;;1.27;90.61;98502.53;7342591;19;20015;-76
2023/03/14 07:11:18;;;;;;;9.05;5.47;;;;;;;1.32;90.54;98515.41;7342869;19;20358;-75
2023/03/14 07:13:43;;;;;;;9.25;4.70;;;;;;;1.35;90.27;98524.00;7343034;19;20014;-76
2023/03/14 07:16:09;;;;;;;7.85;4.13;;;;;;;1.35;90.47;98504.78;7340273;19;20014;-76
2023/03/14 07:18:36;;;;;;;11.30;4.65;;;;;;;1.44;90.22;98512.16;7340280;19;20395;-76
2023/03/14 07:21:02;;;;;;;7.50;4.75;;;;;;;1.44;89.78;98512.16;7339296;19;20327;-77
2023/03/14 07:23:27;;;;;;;7.10;4.45;;;;;;;1.46;89.74;98526.06;7345880;19;20350;-74
2023/03/14 07:25:53;;;;;;;8.52;5.07;;;;;;;1.38;89.50;98520.34;7340738;19;20028;-75
2023/03/14 07:28:19;;;;;;;7.68;4.55;;;;;;;1.45;89.54;98525.22;7341889;19;20585;-73
2023/03/14 07:30:47;;;;;;;2.95;1.92;;;;;;;1.78;88.85;98524.34;7339987;19;20015;-76
2023/03/14 07:33:18;;;;;;;9.13;5.35;;;;;;;1.66;88.92;98517.97;7339818;19;20013;-75
2023/03/14 07:35:43;;;;;;;7.18;4.78;;;;;;;1.75;89.03;98521.88;7339880;19;20015;-75
2023/03/14 07:38:08;;;;;;;9.73;4.50;;;;;;;1.85;88.97;98523.06;7339599;19;20015;-74
2023/03/14 07:40:40;;;;;;;9.00;5.40;;;;;;;1.82;88.94;98531.09;7340799;19;20082;-74
2023/03/14 07:43:05;;;;;;;10.27;4.72;;;;;;;1.88;88.70;98525.53;7339551;19;20023;-75
2023/03/14 07:45:56;;;;;;;9.65;4.68;;;;;;;1.91;88.84;98527.16;7341151;19;20003;-75
2023/03/14 07:48:21;;;;;;;9.20;4.80;;;;;;;1.77;87.89;98520.88;7340923;19;20092;-75
2023/03/14 07:50:49;;;;;;;8.52;4.25;;;;;;;1.79;87.53;98521.63;7340361;19;20029;-75
2023/03/14 07:53:14;;;;;;;12.30;4.82;;;;;;;1.85;87.29;98517.81;7339232;19;20015;-76
2023/03/14 07:55:40;;;;;;;8.23;4.05;;;;;;;1.95;87.47;98520.78;7340997;19;20014;-76
2023/03/14 07:58:04;;;;;;;5.18;4.10;;;;;;;2.08;87.59;98509.53;7344983;19;20018;-77
2023/03/14 08:00:29;;;;;;;13.15;4.53;;;;;;;2.16;87.33;98517.81;7344514;19;20019;-75
2023/03/14 08:02:54;;;;;;;8.38;4.28;;;;;;;2.23;86.94;98517.50;7354915;19;20010;-75
2023/03/14 08:05:18;;;;;;;10.10;4.75;;;;;;;2.24;85.21;98527.09;7360822;19;20498;-76
2023/03/14 08:07:43;;;;;;;10.90;5.00;;;;;;;2.18;83.49;98544.03;7340162;19;20469;-76
2023/03/14 08:10:09;;;;;;;9.80;5.20;;;;;;;2.23;83.00;98538.53;7340703;19;20023;-76
2023/03/14 08:12:33;;;;;;;8.60;4.88;;;;;;;2.23;82.31;98523.63;7339378;19;20011;-76
2023/03/14 08:14:59;;;;;;;6.53;4.15;;;;;;;2.31;82.49;98539.81;7342738;19;20014;-76
2023/03/14 08:17:24;;;;;;;8.07;4.45;;;;;;;2.34;82.49;98541.41;7340421;19;20010;-77
2023/03/14 08:19:48;;;;;;;8.43;4.72;;;;;;;2.28;82.40;98534.72;7339135;19;20022;-76
2023/03/14 08:22:13;;;;;;;10.55;4.78;;;;;;;2.38;83.00;98533.25;7338272;19;20022;-76
2023/03/14 08:24:38;;;;;;;9.90;5.68;;;;;;;2.29;82.79;98531.16;7338766;19;20023;-76
2023/03/14 08:27:02;;;;;;;6.38;4.22;;;;;;;2.16;81.99;98538.84;7340639;19;20029;-75
2023/03/14 08:29:27;;;;;;;11.48;4.28;;;;;;;2.22;81.31;98537.69;7339085;19;20386;-74
2023/03/14 08:31:51;;;;;;;7.80;4.00;;;;;;;2.39;81.47;98534.94;7343450;19;20019;-74
2023/03/14 08:34:16;;;;;;;10.57;4.32;;;;;;;2.38;80.39;98532.41;7346474;19;20022;-77
2023/03/14 08:36:42;;;;;;;9.07;4.57;;;;;;;2.42;79.51;98534.78;7349349;19;20014;-78
2023/03/14 08:39:07;;;;;;;6.70;4.20;;;;;;;2.48;78.94;98533.63;7348054;19;20042;-77
2023/03/14 08:41:32;;;;;;;6.95;4.18;;;;;;;2.67;79.71;98534.25;7348580;19;20019;-77
2023/03/14 08:43:56;;;;;;;5.93;4.53;;;;;;;2.72;79.63;98537.44;7347443;19;20054;-78
2023/03/14 08:46:21;;;;;;;8.05;4.60;;;;;;;2.72;78.00;98531.34;7347849;19;20017;-76
2023/03/14 08:48:45;;;;;;;9.70;4.60;;;;;;;2.79;77.93;98538.81;7346356;19;20014;-77
2023/03/14 08:51:13;;;;;;;5.60;3.72;;;;;;;2.90;77.72;98535.56;7346856;19;20094;-78
2023/03/14 08:53:38;;;;;;;7.10;4.13;;;;;;;2.99;77.21;98542.91;7346908;19;20110;-75
2023/03/14 08:56:05;;;;;;;8.25;4.18;;;;;;;3.09;77.66;98536.19;7348373;19;20011;-76
2023/03/14 08:58:30;;;;;;;6.65;4.38;;;;;;;3.06;75.23;98532.88;7343632;19;20042;-78
2023/03/14 09:00:55;;;;;;;7.38;3.70;;;;;;;3.31;76.69;98534.91;7346546;19;20077;-78
2023/03/14 09:03:19;;;;;;;9.20;3.83;;;;;;;3.26;75.29;98525.50;7350377;19;20044;-77
2023/03/14 09:05:44;;;;;;;4.82;3.42;;;;;;;3.43;75.24;98532.38;7346314;19;20018;-74
2023/03/14 09:08:08;;;;;;;6.30;4.20;;;;;;;3.37;74.65;98508.22;7348451;19;20104;-75
2023/03/14 09:10:33;;;;;;;8.13;4.55;;;;;;;3.61;76.26;98512.00;7346014;19;20014;-77
2023/03/14 09:12:58;;;;;;;8.90;4.28;;;;;;;3.48;74.68;98508.41;7345636;19;20055;-74
2023/03/14 09:15:23;;;;;;;12.02;4.72;;;;;;;3.50;73.84;98511.81;7344619;19;20330;-71
2023/03/14 09:17:47;;;;;;;6.85;4.80;;;;;;;3.50;72.80;98515.25;7345749;19;20018;-74
2023/03/14 09:20:13;;;;;;;7.82;4.53;;;;;;;3.48;72.27;98516.31;7345557;19;20025;-72
2023/03/14 09:22:38;;;;;;;7.88;4.05;;;;;;;3.67;73.44;98514.25;7348365;19;20023;-73
2023/03/14 09:25:04;;;;;;;13.25;4.15;;;;;;;3.54;71.62;98515.91;7348450;19;20014;-72
2023/03/14 09:27:28;;;;;;;7.35;4.50;;;;;;;3.60;71.75;98526.97;7349323;19;20014;-74
2023/03/14 09:29:53;;;;;;;7.88;4.20;;;;;;;3.69;72.41;98525.53;7348308;19;20034;-74
2023/03/14 09:32:17;;;;;;;10.35;4.70;;;;;;;3.59;70.87;98532.31;7347272;19;20019;-72
2023/03/14 09:34:42;;;;;;;9.68;4.53;;;;;;;3.77;72.24;98533.81;7349944;19;20010;-73
2023/03/14 09:37:07;;;;;;;6.40;4.20;;;;;;;3.78;71.37;98522.31;7347076;19;20092;-74
2023/03/14 09:39:31;;;;;;;10.13;5.22;;;;;;;3.77;70.61;98519.78;7347079;19;20015;-73
2023/03/14 09:42:00;;;;;;;12.65;4.35;;;;;;;3.90;70.65;98508.38;7344169;19;20018;-73
2023/03/14 09:44:28;;;;;;;6.10;3.95;;;;;;;3.98;70.55;98537.75;7345087;19;20477;-73
2023/03/14 09:46:57;;;;;;;6.97;3.97;;;;;;;4.04;70.59;98520.72;7344306;19;20063;-76
2023/03/14 09:49:26;;;;;;;6.28;3.63;;;;;;;4.07;69.68;98525.78;7343763;19;20078;-74
2023/03/14 09:51:54;;;;;;;5.95;3.80;;;;;;;4.03;68.88;98523.44;7345665;19;20038;-73
2023/03/14 09:54:31;;;;;;;7.28;3.88;;;;;;;4.12;68.93;98518.44;7344955;19;20014;-74
2023/03/14 09:56:56;;;;;;;9.45;4.45;;;;;;;4.16;68.99;98516.47;7348470;19;20020;-71
2023/03/14 09:59:20;;;;;;;7.40;4.38;;;;;;;4.11;68.28;98529.06;7345316;19;20077;-73
2023/03/14 10:01:45;;;;;;;8.80;4.63;;;;;;;4.10;67.31;98527.38;7345063;19;20011;-73
2023/03/14 10:04:18;;;;;;;8.60;3.38;;;;;;;4.32;69.24;98523.28;7346763;19;20029;-74
2023/03/14 10:06:43;;;;;;;3.80;2.83;;;;;;;4.36;68.98;98524.78;7346097;19;20026;-74
2023/03/14 10:09:19;;;;;;;8.70;3.95;;;;;;;4.28;67.38;98513.88;7353117;19;20836;-73
2023/03/14 10:11:44;;;;;;;6.85;4.10;;;;;;;4.21;66.95;98509.94;7348473;19;20018;-76
2023/03/14 10:14:12;;;;;;;5.38;4.32;;;;;;;4.29;67.70;98501.50;7345184;19;20035;-73
2023/03/14 10:16:44;;;;;;;7.03;3.70;;;;;;;4.52;68.97;98492.13;7341515;19;20029;-73
2023/03/14 10:19:13;;;;;;;10.98;3.88;;;;;;;4.49;68.27;98477.34;7343281;19;20017;-74
2023/03/14 10:21:42;;;;;;;7.85;4.57;;;;;;;4.55;67.52;98476.94;7346728;19;20364;-73
2023/03/14 10:24:21;;;;;;;7.43;4.00;;;;;;;4.73;68.28;98474.91;7345867;19;20344;-73
2023/03/14 10:27:01;;;;;;;15.35;5.22;;;;;;;4.41;67.59;98460.31;7343416;19;20022;-73
2023/03/14 10:29:25;;;;;;;5.35;4.32;;;;;;;4.36;68.23;98479.94;7342105;19;20030;-74
2023/03/14 10:31:52;;;;;;;6.45;4.18;;;;;;;4.27;68.65;98484.97;7344148;19;20017;-75
2023/03/14 10:34:22;;;;;;;8.95;4.30;;;;;;;4.24;68.61;98491.28;7344170;19;20017;-73
2023/03/14 10:36:52;;;;;;;8.95;4.50;;;;;;;4.21;68.21;98498.53;7348433;19;20336;-77
2023/03/14 10:39:38;;;;;;;7.78;4.25;;;;;;;4.35;68.38;98495.88;7345227;19;20018;-77
2023/03/14 10:42:18;;;;;;;7.47;4.80;;;;;;;4.18;67.63;98485.53;7346000;19;20522;-77
2023/03/14 10:44:44;;;;;;;9.23;4.35;;;;;;;4.23;67.70;98478.19;7345673;19;20441;-77
2023/03/14 10:47:18;;;;;;;3.88;3.47;;;;;;;4.36;67.88;98479.09;7348116;19;20014;-75
2023/03/14 10:49:43;;;;;;;8.98;4.25;;;;;;;4.44;67.19;98465.38;7346652;19;20026;-75
2023/03/14 10:52:18;;;;;;;6.75;4.32;;;;;;;4.52;66.31;98471.84;7345749;19;20007;-75
2023/03/14 10:54:47;;;;;;;7.40;4.50;;;;;;;4.63;65.92;98474.63;7349344;19;20023;-76
2023/03/14 10:57:12;;;;;;;4.25;3.13;;;;;;;4.84;66.54;98455.69;7348553;19;20379;-77
2023/03/14 10:59:41;;;;;;;8.65;4.20;;;;;;;4.98;66.13;98458.22;7349766;19;20027;-77
2023/03/14 11:02:26;;;;;;;5.95;3.90;;;;;;;5.24;65.31;98467.03;7347643;19;20018;-78
2023/03/14 11:05:13;;;;;;;11.05;4.68;;;;;;;5.32;63.47;98465.53;7342538;19;20504;-76
2023/03/14 11:07:44;;;;;;;8.13;4.82;;;;;;;5.57;63.95;98450.63;7348983;19;20020;-79
2023/03/14 11:10:15;;;;;;;5.50;3.38;;;;;;;5.79;64.73;98456.94;7350763;19;20014;-76
2023/03/14 11:12:53;;;;;;;5.47;4.10;;;;;;;5.81;63.15;98433.03;7345909;19;20018;-72
2023/03/14 11:16:00;;;;;;;6.57;4.30;;;;;;;5.98;62.56;98424.75;7340312;19;20082;-72
2023/03/14 11:18:47;;;;;;;10.68;4.03;;;;;;;5.74;61.29;98434.44;7341906;19;20015;-72
2023/03/14 11:21:22;;;;;;;7.68;4.22;;;;;;;5.86;61.75;98423.00;7344553;19;20041;-70
2023/03/14 11:24:21;;;;;;;8.90;4.63;;;;;;;5.81;61.17;98456.84;7350477;19;20007;-70
2023/03/14 11:26:50;;;;;;;10.63;5.07;;;;;;;5.62;61.02;98467.03;7345410;19;20023;-70
2023/03/14 11:29:21;;;;;;;9.73;4.35;;;;;;;5.64;60.72;98471.25;7344416;19;20022;-71
2023/03/14 11:31:46;;;;;;;5.60;3.90;;;;;;;5.71;61.27;98474.31;7345007;19;20051;-70
2023/03/14 11:34:28;;;;;;;12.77;4.82;;;;;;;5.68;60.99;98461.31;7345914;19;20023;-70
2023/03/14 11:36:59;;;;;;;7.80;4.65;;;;;;;5.71;61.13;98466.38;7341413;19;20373;-75
2023/03/14 11:39:29;;;;;;;11.15;4.80;;;;;;;5.76;61.51;98483.59;7344075;19;20022;-76
2023/03/14 11:41:58;;;;;;;9.57;5.53;;;;;;;5.58;61.06;98492.81;7343506;19;20023;-69
2023/03/14 11:44:43;;;;;;;6.53;4.15;;;;;;;5.68;61.60;98461.31;7344353;19;20027;-68
2023/03/14 11:47:18;;;;;;;7.90;4.72;;;;;;;5.44;60.45;98475.28;7343162;19;20018;-71